sensor_id;sensor_type;location;lat;lon;timestamp;P1;durP1;ratioP1;P2;durP2;ratioP2
60436;SDS011;46289;51.992;4.498;2022-07-15T00:01:35;8.45;;;2.88;;
60436;SDS011;46289;51.992;4.498;2022-07-15T00:04:05;8.38;;;2.80;;
60436;SDS011;46289;51.992;4.498;2022-07-15T00:06:36;11.13;;;2.58;;
60436;SDS011;46289;51.992;4.498;2022-07-15T00:09:06;6.45;;;2.70;;
60436;SDS011;46289;51.992;4.498;2022-07-15T00:11:36;5.15;;;2.33;;
60436;SDS011;46289;51.992;4.498;2022-07-15T00:14:09;8.15;;;3.00;;
60436;SDS011;46289;51.992;4.498;2022-07-15T00:16:39;12.80;;;3.00;;
60436;SDS011;46289;51.992;4.498;2022-07-15T00:19:09;7.28;;;2.28;;
60436;SDS011;46289;51.992;4.498;2022-07-15T00:21:39;9.93;;;2.75;;
60436;SDS011;46289;51.992;4.498;2022-07-15T00:24:08;9.05;;;3.15;;
60436;SDS011;46289;51.992;4.498;2022-07-15T00:26:38;7.30;;;2.58;;
60436;SDS011;46289;51.992;4.498;2022-07-15T00:29:10;6.88;;;2.55;;
60436;SDS011;46289;51.992;4.498;2022-07-15T00:31:41;7.27;;;2.60;;
60436;SDS011;46289;51.992;4.498;2022-07-15T00:34:11;11.00;;;3.30;;
60436;SDS011;46289;51.992;4.498;2022-07-15T00:36:43;5.57;;;2.47;;
60436;SDS011;46289;51.992;4.498;2022-07-15T00:39:13;8.68;;;2.60;;
60436;SDS011;46289;51.992;4.498;2022-07-15T00:41:43;4.03;;;2.55;;
60436;SDS011;46289;51.992;4.498;2022-07-15T00:44:15;8.13;;;2.90;;
60436;SDS011;46289;51.992;4.498;2022-07-15T00:46:47;11.65;;;3.22;;
60436;SDS011;46289;51.992;4.498;2022-07-15T00:49:17;5.88;;;2.75;;
60436;SDS011;46289;51.992;4.498;2022-07-15T00:51:49;6.85;;;2.50;;
60436;SDS011;46289;51.992;4.498;2022-07-15T00:54:22;7.18;;;2.58;;
60436;SDS011;46289;51.992;4.498;2022-07-15T00:56:54;7.93;;;2.55;;
60436;SDS011;46289;51.992;4.498;2022-07-15T00:59:31;7.78;;;2.63;;
60436;SDS011;46289;51.992;4.498;2022-07-15T01:02:03;10.20;;;2.88;;
60436;SDS011;46289;51.992;4.498;2022-07-15T01:04:35;9.13;;;2.63;;
60436;SDS011;46289;51.992;4.498;2022-07-15T01:07:07;5.90;;;2.75;;
60436;SDS011;46289;51.992;4.498;2022-07-15T01:09:37;8.02;;;2.80;;
60436;SDS011;46289;51.992;4.498;2022-07-15T01:12:07;8.88;;;2.63;;
60436;SDS011;46289;51.992;4.498;2022-07-15T01:14:40;7.90;;;4.18;;
60436;SDS011;46289;51.992;4.498;2022-07-15T01:17:10;7.35;;;2.40;;
60436;SDS011;46289;51.992;4.498;2022-07-15T01:19:40;8.75;;;3.00;;
60436;SDS011;46289;51.992;4.498;2022-07-15T01:22:13;7.53;;;2.70;;
60436;SDS011;46289;51.992;4.498;2022-07-15T01:24:43;6.32;;;2.67;;
60436;SDS011;46289;51.992;4.498;2022-07-15T01:27:12;7.63;;;2.83;;
60436;SDS011;46289;51.992;4.498;2022-07-15T01:29:42;9.55;;;2.58;;
60436;SDS011;46289;51.992;4.498;2022-07-15T01:32:12;8.32;;;2.63;;
60436;SDS011;46289;51.992;4.498;2022-07-15T01:34:43;7.88;;;2.75;;
60436;SDS011;46289;51.992;4.498;2022-07-15T01:37:17;9.48;;;2.60;;
60436;SDS011;46289;51.992;4.498;2022-07-15T01:39:47;8.50;;;2.43;;
60436;SDS011;46289;51.992;4.498;2022-07-15T01:42:17;7.50;;;2.40;;
60436;SDS011;46289;51.992;4.498;2022-07-15T01:44:47;7.55;;;2.28;;
60436;SDS011;46289;51.992;4.498;2022-07-15T01:47:17;7.03;;;2.38;;
60436;SDS011;46289;51.992;4.498;2022-07-15T01:49:47;7.35;;;2.33;;
60436;SDS011;46289;51.992;4.498;2022-07-15T01:52:19;9.43;;;2.80;;
60436;SDS011;46289;51.992;4.498;2022-07-15T01:54:51;6.35;;;2.60;;
60436;SDS011;46289;51.992;4.498;2022-07-15T01:57:21;11.55;;;3.13;;
60436;SDS011;46289;51.992;4.498;2022-07-15T01:59:51;12.85;;;2.90;;
60436;SDS011;46289;51.992;4.498;2022-07-15T02:02:21;5.70;;;2.13;;
60436;SDS011;46289;51.992;4.498;2022-07-15T02:04:51;9.20;;;2.83;;
60436;SDS011;46289;51.992;4.498;2022-07-15T02:07:24;5.93;;;2.35;;
60436;SDS011;46289;51.992;4.498;2022-07-15T02:09:54;6.20;;;2.90;;
60436;SDS011;46289;51.992;4.498;2022-07-15T02:12:25;6.82;;;2.10;;
60436;SDS011;46289;51.992;4.498;2022-07-15T02:14:55;7.53;;;2.40;;
60436;SDS011;46289;51.992;4.498;2022-07-15T02:17:25;10.48;;;2.92;;
60436;SDS011;46289;51.992;4.498;2022-07-15T02:19:55;5.50;;;2.30;;
60436;SDS011;46289;51.992;4.498;2022-07-15T02:22:28;16.00;;;2.70;;
60436;SDS011;46289;51.992;4.498;2022-07-15T02:24:57;5.70;;;2.00;;
60436;SDS011;46289;51.992;4.498;2022-07-15T02:27:28;6.53;;;2.63;;
60436;SDS011;46289;51.992;4.498;2022-07-15T02:29:58;8.25;;;2.40;;
60436;SDS011;46289;51.992;4.498;2022-07-15T02:32:28;6.80;;;2.35;;
60436;SDS011;46289;51.992;4.498;2022-07-15T02:34:58;8.27;;;2.72;;
60436;SDS011;46289;51.992;4.498;2022-07-15T02:37:30;12.02;;;2.30;;
60436;SDS011;46289;51.992;4.498;2022-07-15T02:40:00;8.52;;;2.13;;
60436;SDS011;46289;51.992;4.498;2022-07-15T02:42:30;8.27;;;2.38;;
60436;SDS011;46289;51.992;4.498;2022-07-15T02:45:00;11.75;;;2.78;;
60436;SDS011;46289;51.992;4.498;2022-07-15T02:47:30;7.45;;;2.95;;
60436;SDS011;46289;51.992;4.498;2022-07-15T02:50:01;8.13;;;2.42;;
60436;SDS011;46289;51.992;4.498;2022-07-15T02:52:34;8.85;;;2.70;;
60436;SDS011;46289;51.992;4.498;2022-07-15T02:55:05;7.87;;;2.80;;
60436;SDS011;46289;51.992;4.498;2022-07-15T02:57:36;4.97;;;2.40;;
60436;SDS011;46289;51.992;4.498;2022-07-15T03:00:08;4.93;;;2.50;;
60436;SDS011;46289;51.992;4.498;2022-07-15T03:02:41;8.98;;;2.70;;
60436;SDS011;46289;51.992;4.498;2022-07-15T03:05:11;6.65;;;2.70;;
60436;SDS011;46289;51.992;4.498;2022-07-15T03:07:44;6.18;;;2.60;;
60436;SDS011;46289;51.992;4.498;2022-07-15T03:10:15;6.47;;;2.40;;
60436;SDS011;46289;51.992;4.498;2022-07-15T03:12:44;6.72;;;2.90;;
60436;SDS011;46289;51.992;4.498;2022-07-15T03:15:14;7.13;;;2.38;;
60436;SDS011;46289;51.992;4.498;2022-07-15T03:17:44;7.40;;;2.55;;
60436;SDS011;46289;51.992;4.498;2022-07-15T03:20:14;6.97;;;2.50;;
60436;SDS011;46289;51.992;4.498;2022-07-15T03:22:47;8.02;;;2.13;;
60436;SDS011;46289;51.992;4.498;2022-07-15T03:25:17;5.93;;;2.60;;
60436;SDS011;46289;51.992;4.498;2022-07-15T03:27:47;7.53;;;2.97;;
60436;SDS011;46289;51.992;4.498;2022-07-15T03:30:17;5.13;;;2.28;;
60436;SDS011;46289;51.992;4.498;2022-07-15T03:32:49;10.30;;;2.78;;
60436;SDS011;46289;51.992;4.498;2022-07-15T03:35:20;8.25;;;3.50;;
60436;SDS011;46289;51.992;4.498;2022-07-15T03:37:53;9.40;;;3.13;;
60436;SDS011;46289;51.992;4.498;2022-07-15T03:40:23;5.68;;;2.72;;
60436;SDS011;46289;51.992;4.498;2022-07-15T03:42:52;8.02;;;3.28;;
60436;SDS011;46289;51.992;4.498;2022-07-15T03:45:22;6.70;;;2.42;;
60436;SDS011;46289;51.992;4.498;2022-07-15T03:47:52;7.43;;;2.80;;
60436;SDS011;46289;51.992;4.498;2022-07-15T03:50:22;5.63;;;2.15;;
60436;SDS011;46289;51.992;4.498;2022-07-15T03:52:55;6.50;;;2.42;;
60436;SDS011;46289;51.992;4.498;2022-07-15T03:55:27;7.15;;;2.60;;
60436;SDS011;46289;51.992;4.498;2022-07-15T03:57:58;6.65;;;2.47;;
60436;SDS011;46289;51.992;4.498;2022-07-15T04:00:28;3.78;;;1.92;;
60436;SDS011;46289;51.992;4.498;2022-07-15T04:02:59;6.32;;;2.30;;
60436;SDS011;46289;51.992;4.498;2022-07-15T04:05:29;6.88;;;2.22;;
60436;SDS011;46289;51.992;4.498;2022-07-15T04:08:02;6.50;;;3.00;;
60436;SDS011;46289;51.992;4.498;2022-07-15T04:10:33;5.82;;;2.35;;
60436;SDS011;46289;51.992;4.498;2022-07-15T04:13:03;5.55;;;2.40;;
60436;SDS011;46289;51.992;4.498;2022-07-15T04:15:33;8.20;;;2.83;;
60436;SDS011;46289;51.992;4.498;2022-07-15T04:18:03;7.68;;;2.47;;
60436;SDS011;46289;51.992;4.498;2022-07-15T04:20:34;7.50;;;2.17;;
60436;SDS011;46289;51.992;4.498;2022-07-15T04:23:06;7.18;;;2.50;;
60436;SDS011;46289;51.992;4.498;2022-07-15T04:25:37;8.25;;;2.72;;
60436;SDS011;46289;51.992;4.498;2022-07-15T04:28:07;7.82;;;2.45;;
60436;SDS011;46289;51.992;4.498;2022-07-15T04:30:38;9.27;;;2.55;;
60436;SDS011;46289;51.992;4.498;2022-07-15T04:33:08;8.55;;;2.60;;
60436;SDS011;46289;51.992;4.498;2022-07-15T04:35:38;8.10;;;2.40;;
60436;SDS011;46289;51.992;4.498;2022-07-15T04:38:11;7.47;;;2.72;;
60436;SDS011;46289;51.992;4.498;2022-07-15T04:40:41;4.88;;;2.40;;
60436;SDS011;46289;51.992;4.498;2022-07-15T04:43:11;11.80;;;2.85;;
60436;SDS011;46289;51.992;4.498;2022-07-15T04:45:42;7.43;;;2.03;;
60436;SDS011;46289;51.992;4.498;2022-07-15T04:48:12;7.80;;;2.45;;
60436;SDS011;46289;51.992;4.498;2022-07-15T04:50:54;6.55;;;3.50;;
60436;SDS011;46289;51.992;4.498;2022-07-15T04:53:28;7.80;;;2.53;;
60436;SDS011;46289;51.992;4.498;2022-07-15T04:56:01;6.20;;;2.67;;
60436;SDS011;46289;51.992;4.498;2022-07-15T04:58:31;4.85;;;2.30;;
60436;SDS011;46289;51.992;4.498;2022-07-15T05:01:02;5.40;;;2.30;;
60436;SDS011;46289;51.992;4.498;2022-07-15T05:03:32;7.95;;;2.70;;
60436;SDS011;46289;51.992;4.498;2022-07-15T05:06:02;6.57;;;2.20;;
60436;SDS011;46289;51.992;4.498;2022-07-15T05:08:35;6.00;;;1.98;;
60436;SDS011;46289;51.992;4.498;2022-07-15T05:11:05;7.88;;;2.33;;
60436;SDS011;46289;51.992;4.498;2022-07-15T05:13:36;3.53;;;2.00;;
60436;SDS011;46289;51.992;4.498;2022-07-15T05:16:07;5.72;;;2.13;;
60436;SDS011;46289;51.992;4.498;2022-07-15T05:18:37;5.97;;;1.90;;
60436;SDS011;46289;51.992;4.498;2022-07-15T05:21:08;6.25;;;2.08;;
60436;SDS011;46289;51.992;4.498;2022-07-15T05:23:42;5.82;;;1.90;;
60436;SDS011;46289;51.992;4.498;2022-07-15T05:26:32;5.97;;;2.27;;
60436;SDS011;46289;51.992;4.498;2022-07-15T05:29:10;7.80;;;1.90;;
60436;SDS011;46289;51.992;4.498;2022-07-15T05:31:40;6.10;;;1.88;;
60436;SDS011;46289;51.992;4.498;2022-07-15T05:34:10;5.43;;;2.00;;
60436;SDS011;46289;51.992;4.498;2022-07-15T05:36:40;2.45;;;1.50;;
60436;SDS011;46289;51.992;4.498;2022-07-15T05:39:13;6.68;;;1.92;;
60436;SDS011;46289;51.992;4.498;2022-07-15T05:41:43;6.82;;;2.13;;
60436;SDS011;46289;51.992;4.498;2022-07-15T05:44:14;3.60;;;1.70;;
60436;SDS011;46289;51.992;4.498;2022-07-15T05:46:44;8.20;;;2.25;;
60436;SDS011;46289;51.992;4.498;2022-07-15T05:49:14;5.40;;;1.90;;
60436;SDS011;46289;51.992;4.498;2022-07-15T05:51:45;5.35;;;2.05;;
60436;SDS011;46289;51.992;4.498;2022-07-15T05:54:17;4.35;;;1.40;;
60436;SDS011;46289;51.992;4.498;2022-07-15T05:56:47;8.02;;;1.90;;
60436;SDS011;46289;51.992;4.498;2022-07-15T05:59:17;9.50;;;2.83;;
60436;SDS011;46289;51.992;4.498;2022-07-15T06:01:47;4.45;;;1.80;;
60436;SDS011;46289;51.992;4.498;2022-07-15T06:04:17;9.13;;;2.22;;
60436;SDS011;46289;51.992;4.498;2022-07-15T06:06:48;7.65;;;1.73;;
60436;SDS011;46289;51.992;4.498;2022-07-15T06:09:21;3.90;;;1.45;;
60436;SDS011;46289;51.992;4.498;2022-07-15T06:11:51;5.05;;;1.48;;
60436;SDS011;46289;51.992;4.498;2022-07-15T06:14:21;5.82;;;1.80;;
60436;SDS011;46289;51.992;4.498;2022-07-15T06:16:51;4.95;;;1.42;;
60436;SDS011;46289;51.992;4.498;2022-07-15T06:19:21;4.32;;;1.30;;
60436;SDS011;46289;51.992;4.498;2022-07-15T06:21:52;5.22;;;1.30;;
60436;SDS011;46289;51.992;4.498;2022-07-15T06:24:24;5.18;;;1.60;;
60436;SDS011;46289;51.992;4.498;2022-07-15T06:26:58;9.55;;;1.98;;
60436;SDS011;46289;51.992;4.498;2022-07-15T06:29:39;6.63;;;1.58;;
60436;SDS011;46289;51.992;4.498;2022-07-15T06:32:16;3.95;;;1.15;;
60436;SDS011;46289;51.992;4.498;2022-07-15T06:34:50;5.68;;;1.60;;
60436;SDS011;46289;51.992;4.498;2022-07-15T06:37:21;5.97;;;1.48;;
60436;SDS011;46289;51.992;4.498;2022-07-15T06:40:00;2.60;;;1.20;;
60436;SDS011;46289;51.992;4.498;2022-07-15T06:42:32;4.97;;;1.13;;
60436;SDS011;46289;51.992;4.498;2022-07-15T06:45:06;6.32;;;1.40;;
60436;SDS011;46289;51.992;4.498;2022-07-15T06:47:39;5.90;;;1.25;;
60436;SDS011;46289;51.992;4.498;2022-07-15T06:50:10;2.72;;;1.33;;
60436;SDS011;46289;51.992;4.498;2022-07-15T06:52:44;2.63;;;1.30;;
60436;SDS011;46289;51.992;4.498;2022-07-15T06:55:17;5.10;;;1.63;;
60436;SDS011;46289;51.992;4.498;2022-07-15T06:57:47;5.30;;;1.70;;
60436;SDS011;46289;51.992;4.498;2022-07-15T07:00:17;5.25;;;1.33;;
60436;SDS011;46289;51.992;4.498;2022-07-15T07:02:47;8.80;;;1.38;;
60436;SDS011;46289;51.992;4.498;2022-07-15T07:05:17;1.95;;;1.20;;
60436;SDS011;46289;51.992;4.498;2022-07-15T07:07:47;8.35;;;1.63;;
60436;SDS011;46289;51.992;4.498;2022-07-15T07:10:20;4.20;;;1.40;;
60436;SDS011;46289;51.992;4.498;2022-07-15T07:12:51;4.93;;;1.17;;
60436;SDS011;46289;51.992;4.498;2022-07-15T07:15:21;3.70;;;1.58;;
60436;SDS011;46289;51.992;4.498;2022-07-15T07:17:51;5.00;;;1.45;;
60436;SDS011;46289;51.992;4.498;2022-07-15T07:20:22;4.07;;;1.30;;
60436;SDS011;46289;51.992;4.498;2022-07-15T07:22:51;9.85;;;4.40;;
60436;SDS011;46289;51.992;4.498;2022-07-15T07:25:26;8.45;;;2.88;;
60436;SDS011;46289;51.992;4.498;2022-07-15T07:27:56;5.97;;;1.88;;
60436;SDS011;46289;51.992;4.498;2022-07-15T07:30:30;6.65;;;1.73;;
60436;SDS011;46289;51.992;4.498;2022-07-15T07:32:59;6.47;;;1.58;;
60436;SDS011;46289;51.992;4.498;2022-07-15T07:35:30;4.72;;;1.50;;
60436;SDS011;46289;51.992;4.498;2022-07-15T07:38:00;4.45;;;1.40;;
60436;SDS011;46289;51.992;4.498;2022-07-15T07:40:33;2.72;;;1.17;;
60436;SDS011;46289;51.992;4.498;2022-07-15T07:43:03;4.27;;;1.17;;
60436;SDS011;46289;51.992;4.498;2022-07-15T07:45:33;4.22;;;1.33;;
60436;SDS011;46289;51.992;4.498;2022-07-15T07:48:03;6.55;;;1.33;;
60436;SDS011;46289;51.992;4.498;2022-07-15T07:50:33;8.93;;;2.63;;
60436;SDS011;46289;51.992;4.498;2022-07-15T07:53:04;4.70;;;1.63;;
60436;SDS011;46289;51.992;4.498;2022-07-15T07:55:37;3.58;;;1.30;;
60436;SDS011;46289;51.992;4.498;2022-07-15T07:58:08;7.50;;;1.50;;
60436;SDS011;46289;51.992;4.498;2022-07-15T08:00:42;5.13;;;1.60;;
60436;SDS011;46289;51.992;4.498;2022-07-15T08:03:14;6.05;;;1.80;;
60436;SDS011;46289;51.992;4.498;2022-07-15T08:05:45;4.35;;;1.30;;
60436;SDS011;46289;51.992;4.498;2022-07-15T08:08:16;5.55;;;1.50;;
60436;SDS011;46289;51.992;4.498;2022-07-15T08:10:52;4.53;;;1.45;;
60436;SDS011;46289;51.992;4.498;2022-07-15T08:13:24;6.43;;;1.80;;
60436;SDS011;46289;51.992;4.498;2022-07-15T08:15:55;3.13;;;1.30;;
60436;SDS011;46289;51.992;4.498;2022-07-15T08:18:34;2.60;;;1.27;;
60436;SDS011;46289;51.992;4.498;2022-07-15T08:21:05;4.40;;;1.20;;
60436;SDS011;46289;51.992;4.498;2022-07-15T08:23:35;3.42;;;1.10;;
60436;SDS011;46289;51.992;4.498;2022-07-15T08:26:08;6.45;;;1.67;;
60436;SDS011;46289;51.992;4.498;2022-07-15T08:28:40;5.43;;;1.45;;
60436;SDS011;46289;51.992;4.498;2022-07-15T08:31:30;6.75;;;1.60;;
60436;SDS011;46289;51.992;4.498;2022-07-15T08:34:00;6.13;;;1.80;;
60436;SDS011;46289;51.992;4.498;2022-07-15T08:36:30;3.92;;;1.40;;
60436;SDS011;46289;51.992;4.498;2022-07-15T08:39:01;3.78;;;1.23;;
60436;SDS011;46289;51.992;4.498;2022-07-15T08:41:36;4.47;;;1.65;;
60436;SDS011;46289;51.992;4.498;2022-07-15T08:44:06;7.80;;;1.80;;
60436;SDS011;46289;51.992;4.498;2022-07-15T08:46:37;3.90;;;1.48;;
60436;SDS011;46289;51.992;4.498;2022-07-15T08:49:15;7.95;;;1.88;;
60436;SDS011;46289;51.992;4.498;2022-07-15T08:51:50;6.30;;;1.80;;
60436;SDS011;46289;51.992;4.498;2022-07-15T08:54:26;4.38;;;1.35;;
60436;SDS011;46289;51.992;4.498;2022-07-15T08:57:00;5.13;;;1.83;;
60436;SDS011;46289;51.992;4.498;2022-07-15T08:59:30;5.17;;;1.40;;
60436;SDS011;46289;51.992;4.498;2022-07-15T09:02:02;3.13;;;1.55;;
60436;SDS011;46289;51.992;4.498;2022-07-15T09:04:35;4.90;;;1.60;;
60436;SDS011;46289;51.992;4.498;2022-07-15T09:07:37;6.70;;;2.15;;
60436;SDS011;46289;51.992;4.498;2022-07-15T09:10:20;6.80;;;1.77;;
60436;SDS011;46289;51.992;4.498;2022-07-15T09:12:54;6.00;;;1.95;;
60436;SDS011;46289;51.992;4.498;2022-07-15T09:15:30;9.75;;;5.05;;
60436;SDS011;46289;51.992;4.498;2022-07-15T09:18:05;8.10;;;3.38;;
60436;SDS011;46289;51.992;4.498;2022-07-15T09:20:37;9.35;;;2.70;;
60436;SDS011;46289;51.992;4.498;2022-07-15T09:23:09;7.13;;;2.10;;
60436;SDS011;46289;51.992;4.498;2022-07-15T09:25:48;4.85;;;1.92;;
60436;SDS011;46289;51.992;4.498;2022-07-15T09:28:34;3.60;;;1.75;;
60436;SDS011;46289;51.992;4.498;2022-07-15T09:31:11;3.92;;;1.95;;
60436;SDS011;46289;51.992;4.498;2022-07-15T09:33:58;4.35;;;1.70;;
60436;SDS011;46289;51.992;4.498;2022-07-15T09:36:30;4.55;;;1.80;;
60436;SDS011;46289;51.992;4.498;2022-07-15T09:39:03;7.82;;;2.03;;
60436;SDS011;46289;51.992;4.498;2022-07-15T09:41:35;7.50;;;2.40;;
60436;SDS011;46289;51.992;4.498;2022-07-15T09:44:09;5.32;;;2.22;;
60436;SDS011;46289;51.992;4.498;2022-07-15T09:46:43;5.10;;;2.60;;
60436;SDS011;46289;51.992;4.498;2022-07-15T09:49:15;5.57;;;2.38;;
60436;SDS011;46289;51.992;4.498;2022-07-15T09:51:49;4.40;;;2.30;;
60436;SDS011;46289;51.992;4.498;2022-07-15T09:54:21;5.88;;;2.25;;
60436;SDS011;46289;51.992;4.498;2022-07-15T09:56:57;4.88;;;2.15;;
60436;SDS011;46289;51.992;4.498;2022-07-15T09:59:31;4.07;;;2.30;;
60436;SDS011;46289;51.992;4.498;2022-07-15T10:02:06;5.85;;;2.85;;
60436;SDS011;46289;51.992;4.498;2022-07-15T10:04:36;7.15;;;2.58;;
60436;SDS011;46289;51.992;4.498;2022-07-15T10:07:07;3.90;;;1.92;;
60436;SDS011;46289;51.992;4.498;2022-07-15T10:09:54;5.00;;;1.98;;
60436;SDS011;46289;51.992;4.498;2022-07-15T10:12:38;3.90;;;2.20;;
60436;SDS011;46289;51.992;4.498;2022-07-15T10:15:23;6.18;;;2.38;;
60436;SDS011;46289;51.992;4.498;2022-07-15T10:18:07;4.88;;;2.22;;
60436;SDS011;46289;51.992;4.498;2022-07-15T10:20:53;4.35;;;2.00;;
60436;SDS011;46289;51.992;4.498;2022-07-15T10:23:38;5.35;;;1.88;;
60436;SDS011;46289;51.992;4.498;2022-07-15T10:26:24;5.68;;;2.97;;
60436;SDS011;46289;51.992;4.498;2022-07-15T10:29:14;6.05;;;2.83;;
60436;SDS011;46289;51.992;4.498;2022-07-15T10:31:55;8.30;;;2.47;;
60436;SDS011;46289;51.992;4.498;2022-07-15T10:34:30;5.25;;;2.35;;
60436;SDS011;46289;51.992;4.498;2022-07-15T10:37:02;4.15;;;2.50;;
60436;SDS011;46289;51.992;4.498;2022-07-15T10:42:31;3.55;;;1.80;;
60436;SDS011;46289;51.992;4.498;2022-07-15T10:50:59;4.03;;;1.90;;
60436;SDS011;46289;51.992;4.498;2022-07-15T10:53:29;4.72;;;1.92;;
60436;SDS011;46289;51.992;4.498;2022-07-15T10:59:09;11.70;;;3.10;;
60436;SDS011;46289;51.992;4.498;2022-07-15T11:01:43;5.05;;;2.00;;
60436;SDS011;46289;51.992;4.498;2022-07-15T11:04:18;3.33;;;2.20;;
60436;SDS011;46289;51.992;4.498;2022-07-15T11:09:51;4.25;;;2.30;;
60436;SDS011;46289;51.992;4.498;2022-07-15T11:12:23;4.03;;;2.08;;
60436;SDS011;46289;51.992;4.498;2022-07-15T11:15:13;4.13;;;2.00;;
60436;SDS011;46289;51.992;4.498;2022-07-15T11:17:47;6.90;;;2.65;;
60436;SDS011;46289;51.992;4.498;2022-07-15T11:20:30;6.30;;;2.75;;
60436;SDS011;46289;51.992;4.498;2022-07-15T11:23:03;4.60;;;2.45;;
60436;SDS011;46289;51.992;4.498;2022-07-15T11:25:36;4.80;;;2.40;;
60436;SDS011;46289;51.992;4.498;2022-07-15T11:28:09;6.50;;;2.50;;
60436;SDS011;46289;51.992;4.498;2022-07-15T11:30:41;5.53;;;2.58;;
60436;SDS011;46289;51.992;4.498;2022-07-15T11:33:15;5.55;;;2.40;;
60436;SDS011;46289;51.992;4.498;2022-07-15T11:35:51;5.35;;;2.47;;
60436;SDS011;46289;51.992;4.498;2022-07-15T11:38:23;7.70;;;2.72;;
60436;SDS011;46289;51.992;4.498;2022-07-15T11:40:56;5.70;;;2.55;;
60436;SDS011;46289;51.992;4.498;2022-07-15T11:43:40;8.23;;;2.90;;
60436;SDS011;46289;51.992;4.498;2022-07-15T11:46:29;5.85;;;2.70;;
60436;SDS011;46289;51.992;4.498;2022-07-15T11:49:01;6.13;;;2.63;;
60436;SDS011;46289;51.992;4.498;2022-07-15T11:51:34;5.05;;;2.53;;
60436;SDS011;46289;51.992;4.498;2022-07-15T11:54:04;5.57;;;2.70;;
60436;SDS011;46289;51.992;4.498;2022-07-15T11:56:34;3.83;;;2.28;;
60436;SDS011;46289;51.992;4.498;2022-07-15T11:59:04;6.82;;;2.80;;
60436;SDS011;46289;51.992;4.498;2022-07-15T12:01:35;6.28;;;2.42;;
60436;SDS011;46289;51.992;4.498;2022-07-15T12:04:05;5.72;;;2.50;;
60436;SDS011;46289;51.992;4.498;2022-07-15T12:06:39;6.93;;;2.50;;
60436;SDS011;46289;51.992;4.498;2022-07-15T12:09:09;7.07;;;2.45;;
60436;SDS011;46289;51.992;4.498;2022-07-15T12:11:39;6.40;;;2.72;;
60436;SDS011;46289;51.992;4.498;2022-07-15T12:14:09;6.53;;;3.13;;
60436;SDS011;46289;51.992;4.498;2022-07-15T12:16:42;7.13;;;3.05;;
60436;SDS011;46289;51.992;4.498;2022-07-15T12:19:14;6.85;;;3.03;;
60436;SDS011;46289;51.992;4.498;2022-07-15T12:21:49;6.65;;;3.20;;
60436;SDS011;46289;51.992;4.498;2022-07-15T12:24:21;5.78;;;2.20;;
60436;SDS011;46289;51.992;4.498;2022-07-15T12:26:56;5.72;;;2.67;;
60436;SDS011;46289;51.992;4.498;2022-07-15T12:29:27;7.90;;;2.50;;
60436;SDS011;46289;51.992;4.498;2022-07-15T12:32:19;5.03;;;2.20;;
60436;SDS011;46289;51.992;4.498;2022-07-15T12:34:51;5.32;;;2.53;;
60436;SDS011;46289;51.992;4.498;2022-07-15T12:37:26;7.47;;;2.90;;
60436;SDS011;46289;51.992;4.498;2022-07-15T12:40:20;5.22;;;2.38;;
60436;SDS011;46289;51.992;4.498;2022-07-15T12:42:51;6.15;;;2.25;;
60436;SDS011;46289;51.992;4.498;2022-07-15T12:45:22;7.75;;;2.45;;
60436;SDS011;46289;51.992;4.498;2022-07-15T12:48:00;7.55;;;3.30;;
60436;SDS011;46289;51.992;4.498;2022-07-15T12:50:32;6.95;;;2.60;;
60436;SDS011;46289;51.992;4.498;2022-07-15T12:53:06;5.68;;;2.70;;
60436;SDS011;46289;51.992;4.498;2022-07-15T12:55:40;8.70;;;2.88;;
60436;SDS011;46289;51.992;4.498;2022-07-15T12:58:12;7.53;;;2.83;;
60436;SDS011;46289;51.992;4.498;2022-07-15T13:00:44;7.53;;;2.97;;
60436;SDS011;46289;51.992;4.498;2022-07-15T13:03:16;6.43;;;3.08;;
60436;SDS011;46289;51.992;4.498;2022-07-15T13:05:56;10.73;;;3.03;;
60436;SDS011;46289;51.992;4.498;2022-07-15T13:08:31;7.78;;;3.13;;
60436;SDS011;46289;51.992;4.498;2022-07-15T13:11:05;7.07;;;3.35;;
60436;SDS011;46289;51.992;4.498;2022-07-15T13:13:40;8.07;;;3.20;;
60436;SDS011;46289;51.992;4.498;2022-07-15T13:16:10;7.90;;;3.35;;
60436;SDS011;46289;51.992;4.498;2022-07-15T13:18:40;6.03;;;3.10;;
60436;SDS011;46289;51.992;4.498;2022-07-15T13:21:10;10.48;;;3.08;;
60436;SDS011;46289;51.992;4.498;2022-07-15T13:23:50;5.88;;;2.97;;
60436;SDS011;46289;51.992;4.498;2022-07-15T13:26:21;5.00;;;2.85;;
60436;SDS011;46289;51.992;4.498;2022-07-15T13:28:55;6.95;;;3.30;;
60436;SDS011;46289;51.992;4.498;2022-07-15T13:31:26;10.20;;;3.17;;
60436;SDS011;46289;51.992;4.498;2022-07-15T13:33:56;5.55;;;3.38;;
60436;SDS011;46289;51.992;4.498;2022-07-15T13:36:26;9.77;;;3.20;;
60436;SDS011;46289;51.992;4.498;2022-07-15T13:39:00;7.65;;;2.90;;
60436;SDS011;46289;51.992;4.498;2022-07-15T13:43:59;8.63;;;2.90;;
60436;SDS011;46289;51.992;4.498;2022-07-15T13:46:31;15.07;;;3.40;;
60436;SDS011;46289;51.992;4.498;2022-07-15T13:49:01;9.88;;;3.72;;
60436;SDS011;46289;51.992;4.498;2022-07-15T13:51:31;6.63;;;3.55;;
60436;SDS011;46289;51.992;4.498;2022-07-15T13:54:01;6.85;;;3.05;;
60436;SDS011;46289;51.992;4.498;2022-07-15T13:59:02;9.95;;;3.33;;
60436;SDS011;46289;51.992;4.498;2022-07-15T14:01:33;9.05;;;2.85;;
60436;SDS011;46289;51.992;4.498;2022-07-15T14:04:04;7.97;;;3.28;;
60436;SDS011;46289;51.992;4.498;2022-07-15T14:06:34;8.18;;;3.50;;
60436;SDS011;46289;51.992;4.498;2022-07-15T14:09:07;9.25;;;3.20;;
60436;SDS011;46289;51.992;4.498;2022-07-15T14:11:37;11.73;;;3.83;;
60436;SDS011;46289;51.992;4.498;2022-07-15T14:14:07;6.43;;;3.28;;
60436;SDS011;46289;51.992;4.498;2022-07-15T14:16:37;7.47;;;3.35;;
60436;SDS011;46289;51.992;4.498;2022-07-15T14:19:07;9.20;;;3.05;;
60436;SDS011;46289;51.992;4.498;2022-07-15T14:21:38;11.50;;;3.88;;
60436;SDS011;46289;51.992;4.498;2022-07-15T14:24:18;9.70;;;3.63;;
60436;SDS011;46289;51.992;4.498;2022-07-15T14:26:48;7.72;;;3.75;;
60436;SDS011;46289;51.992;4.498;2022-07-15T14:29:19;9.02;;;3.78;;
60436;SDS011;46289;51.992;4.498;2022-07-15T14:31:50;10.77;;;3.30;;
60436;SDS011;46289;51.992;4.498;2022-07-15T14:34:26;5.63;;;2.65;;
60436;SDS011;46289;51.992;4.498;2022-07-15T14:36:57;7.68;;;3.33;;
60436;SDS011;46289;51.992;4.498;2022-07-15T14:39:49;6.78;;;2.90;;
60436;SDS011;46289;51.992;4.498;2022-07-15T14:42:19;7.70;;;3.17;;
60436;SDS011;46289;51.992;4.498;2022-07-15T14:44:52;8.45;;;3.15;;
60436;SDS011;46289;51.992;4.498;2022-07-15T14:47:22;8.38;;;3.63;;
60436;SDS011;46289;51.992;4.498;2022-07-15T14:49:53;10.18;;;3.78;;
60436;SDS011;46289;51.992;4.498;2022-07-15T14:52:23;8.52;;;3.55;;
60436;SDS011;46289;51.992;4.498;2022-07-15T14:55:05;10.35;;;3.92;;
60436;SDS011;46289;51.992;4.498;2022-07-15T14:57:36;6.10;;;3.08;;
60436;SDS011;46289;51.992;4.498;2022-07-15T15:00:07;6.22;;;3.20;;
60436;SDS011;46289;51.992;4.498;2022-07-15T15:02:38;9.48;;;2.95;;
60436;SDS011;46289;51.992;4.498;2022-07-15T15:05:09;6.15;;;2.72;;
60436;SDS011;46289;51.992;4.498;2022-07-15T15:07:40;10.68;;;3.70;;
60436;SDS011;46289;51.992;4.498;2022-07-15T15:10:13;9.10;;;3.15;;
60436;SDS011;46289;51.992;4.498;2022-07-15T15:12:43;8.23;;;3.20;;
60436;SDS011;46289;51.992;4.498;2022-07-15T15:15:13;5.57;;;2.60;;
60436;SDS011;46289;51.992;4.498;2022-07-15T15:17:43;7.68;;;3.10;;
60436;SDS011;46289;51.992;4.498;2022-07-15T15:20:13;7.70;;;3.28;;
60436;SDS011;46289;51.992;4.498;2022-07-15T15:22:43;8.80;;;3.30;;
60436;SDS011;46289;51.992;4.498;2022-07-15T15:25:16;8.10;;;3.05;;
60436;SDS011;46289;51.992;4.498;2022-07-15T15:28:07;9.77;;;4.22;;
60436;SDS011;46289;51.992;4.498;2022-07-15T15:30:37;8.32;;;2.80;;
60436;SDS011;46289;51.992;4.498;2022-07-15T15:33:07;8.43;;;3.10;;
60436;SDS011;46289;51.992;4.498;2022-07-15T15:35:37;10.32;;;2.58;;
60436;SDS011;46289;51.992;4.498;2022-07-15T15:38:06;8.70;;;3.10;;
60436;SDS011;46289;51.992;4.498;2022-07-15T15:40:39;8.63;;;3.30;;